Terminal Aerodrome Forecast
Issued by NWS Wilmington, OH

Home | Current Version | Previous Version | Text Only | Print | Product List | Glossary On
Versions: 1 2 3 4 5 6 7 8 9 10 11 12 13 14 15 16 17 18
820
FTUS41 KILN 242342
TAFCMH
TAF
KCMH 242342Z 2500/2524 17008KT P6SM FEW230
     FM250400 20009KT P6SM SCT240 WS020/22040KT
     FM250900 22009KT P6SM BKN060
     FM251500 26008KT P6SM BKN030
     FM252300 30010KT P6SM BKN040=

USA.gov is the U.S. government's official web portal to all federal, state and local government web resources and services.